sensor_id;sensor_type;location;lat;lon;timestamp;temperature;humidity
25839;DHT22;13669;50.186;27.062;2022-09-09T00:04:32;12.50;1.00
25839;DHT22;13669;50.186;27.062;2022-09-09T00:12:54;12.40;1.00
25839;DHT22;13669;50.186;27.062;2022-09-09T00:18:35;12.40;1.00
25839;DHT22;13669;50.186;27.062;2022-09-09T00:21:08;12.50;1.00
25839;DHT22;13669;50.186;27.062;2022-09-09T00:23:39;12.40;1.00
25839;DHT22;13669;50.186;27.062;2022-09-09T00:26:20;12.30;1.00
25839;DHT22;13669;50.186;27.062;2022-09-09T00:28:52;12.40;1.00
25839;DHT22;13669;50.186;27.062;2022-09-09T00:31:26;12.40;1.00
25839;DHT22;13669;50.186;27.062;2022-09-09T00:36:52;12.50;1.00
25839;DHT22;13669;50.186;27.062;2022-09-09T00:39:42;12.60;1.00
25839;DHT22;13669;50.186;27.062;2022-09-09T00:42:13;12.50;1.00
25839;DHT22;13669;50.186;27.062;2022-09-09T00:45:19;12.50;1.00
25839;DHT22;13669;50.186;27.062;2022-09-09T00:47:53;12.50;1.00
25839;DHT22;13669;50.186;27.062;2022-09-09T00:50:46;12.50;1.00
25839;DHT22;13669;50.186;27.062;2022-09-09T00:58:36;12.50;1.00
25839;DHT22;13669;50.186;27.062;2022-09-09T01:01:05;12.60;1.00
25839;DHT22;13669;50.186;27.062;2022-09-09T01:03:38;12.60;1.00
25839;DHT22;13669;50.186;27.062;2022-09-09T01:06:17;12.50;1.00
25839;DHT22;13669;50.186;27.062;2022-09-09T01:09:14;12.50;1.00
25839;DHT22;13669;50.186;27.062;2022-09-09T01:11:52;12.50;1.00
25839;DHT22;13669;50.186;27.062;2022-09-09T01:24:46;12.40;51.20
25839;DHT22;13669;50.186;27.062;2022-09-09T01:27:18;12.40;83.00
25839;DHT22;13669;50.186;27.062;2022-09-09T01:29:46;12.40;97.30
25839;DHT22;13669;50.186;27.062;2022-09-09T01:32:53;12.30;99.90
25839;DHT22;13669;50.186;27.062;2022-09-09T01:35:41;12.30;99.90
25839;DHT22;13669;50.186;27.062;2022-09-09T01:38:11;12.40;99.90
25839;DHT22;13669;50.186;27.062;2022-09-09T01:40:39;12.30;99.90
25839;DHT22;13669;50.186;27.062;2022-09-09T01:43:06;12.30;99.90
25839;DHT22;13669;50.186;27.062;2022-09-09T01:45:34;12.30;99.90
25839;DHT22;13669;50.186;27.062;2022-09-09T01:48:02;12.30;99.90
25839;DHT22;13669;50.186;27.062;2022-09-09T01:50:30;12.30;99.90
25839;DHT22;13669;50.186;27.062;2022-09-09T01:52:59;12.30;99.90
25839;DHT22;13669;50.186;27.062;2022-09-09T01:55:33;12.30;99.90
25839;DHT22;13669;50.186;27.062;2022-09-09T01:58:11;12.30;99.90
25839;DHT22;13669;50.186;27.062;2022-09-09T02:00:51;12.30;99.90
25839;DHT22;13669;50.186;27.062;2022-09-09T02:03:27;12.40;99.90
25839;DHT22;13669;50.186;27.062;2022-09-09T02:11:17;12.30;99.90
25839;DHT22;13669;50.186;27.062;2022-09-09T02:13:47;12.30;99.90
25839;DHT22;13669;50.186;27.062;2022-09-09T02:16:23;12.30;99.90
25839;DHT22;13669;50.186;27.062;2022-09-09T02:21:22;12.20;99.90
25839;DHT22;13669;50.186;27.062;2022-09-09T02:23:52;12.30;99.90
25839;DHT22;13669;50.186;27.062;2022-09-09T02:26:21;12.20;99.90
25839;DHT22;13669;50.186;27.062;2022-09-09T02:28:51;12.20;1.00
25839;DHT22;13669;50.186;27.062;2022-09-09T02:31:22;12.20;1.00
25839;DHT22;13669;50.186;27.062;2022-09-09T02:33:57;12.20;1.00
25839;DHT22;13669;50.186;27.062;2022-09-09T02:36:29;12.20;1.00
25839;DHT22;13669;50.186;27.062;2022-09-09T02:38:57;12.20;1.00
25839;DHT22;13669;50.186;27.062;2022-09-09T02:41:33;12.20;1.00
25839;DHT22;13669;50.186;27.062;2022-09-09T02:44:01;12.20;99.90
25839;DHT22;13669;50.186;27.062;2022-09-09T02:49:39;12.20;1.00
25839;DHT22;13669;50.186;27.062;2022-09-09T02:52:11;12.30;99.90
25839;DHT22;13669;50.186;27.062;2022-09-09T02:54:42;12.30;99.90
25839;DHT22;13669;50.186;27.062;2022-09-09T02:57:21;12.40;99.90
25839;DHT22;13669;50.186;27.062;2022-09-09T02:59:50;12.40;99.90
25839;DHT22;13669;50.186;27.062;2022-09-09T03:02:20;12.30;99.90
25839;DHT22;13669;50.186;27.062;2022-09-09T03:04:47;12.30;99.90
25839;DHT22;13669;50.186;27.062;2022-09-09T03:07:19;12.40;99.90
25839;DHT22;13669;50.186;27.062;2022-09-09T03:09:46;12.30;99.90
25839;DHT22;13669;50.186;27.062;2022-09-09T03:12:14;12.20;99.90
25839;DHT22;13669;50.186;27.062;2022-09-09T03:14:41;12.20;99.90
25839;DHT22;13669;50.186;27.062;2022-09-09T03:17:10;12.20;1.00
25839;DHT22;13669;50.186;27.062;2022-09-09T03:19:37;12.10;1.00
25839;DHT22;13669;50.186;27.062;2022-09-09T03:22:05;12.10;1.00
25839;DHT22;13669;50.186;27.062;2022-09-09T03:24:32;12.20;1.00
25839;DHT22;13669;50.186;27.062;2022-09-09T03:27:00;12.20;1.00
25839;DHT22;13669;50.186;27.062;2022-09-09T03:29:27;12.30;99.90
25839;DHT22;13669;50.186;27.062;2022-09-09T03:31:55;12.30;99.90
25839;DHT22;13669;50.186;27.062;2022-09-09T03:34:22;12.20;99.90
25839;DHT22;13669;50.186;27.062;2022-09-09T03:36:49;12.20;99.90
25839;DHT22;13669;50.186;27.062;2022-09-09T03:39:17;12.30;99.90
25839;DHT22;13669;50.186;27.062;2022-09-09T03:41:45;12.20;99.90
25839;DHT22;13669;50.186;27.062;2022-09-09T03:44:12;12.20;99.90
25839;DHT22;13669;50.186;27.062;2022-09-09T03:46:39;12.10;99.90
25839;DHT22;13669;50.186;27.062;2022-09-09T03:49:07;12.20;1.00
25839;DHT22;13669;50.186;27.062;2022-09-09T03:51:34;12.10;1.00
25839;DHT22;13669;50.186;27.062;2022-09-09T03:54:04;12.10;1.00
25839;DHT22;13669;50.186;27.062;2022-09-09T03:56:35;12.10;1.00
25839;DHT22;13669;50.186;27.062;2022-09-09T03:59:03;12.10;1.00
25839;DHT22;13669;50.186;27.062;2022-09-09T04:01:31;12.10;1.00
25839;DHT22;13669;50.186;27.062;2022-09-09T04:03:58;12.20;1.00
25839;DHT22;13669;50.186;27.062;2022-09-09T04:06:26;12.20;99.90
25839;DHT22;13669;50.186;27.062;2022-09-09T04:08:53;12.20;99.90
25839;DHT22;13669;50.186;27.062;2022-09-09T04:11:22;12.20;99.90
25839;DHT22;13669;50.186;27.062;2022-09-09T04:13:49;12.10;99.90
25839;DHT22;13669;50.186;27.062;2022-09-09T04:16:17;12.20;1.00
25839;DHT22;13669;50.186;27.062;2022-09-09T04:18:45;12.20;99.90
25839;DHT22;13669;50.186;27.062;2022-09-09T04:21:12;12.20;99.90
25839;DHT22;13669;50.186;27.062;2022-09-09T04:23:40;12.20;99.90
25839;DHT22;13669;50.186;27.062;2022-09-09T04:26:07;12.20;99.90
25839;DHT22;13669;50.186;27.062;2022-09-09T04:28:36;12.20;99.90
25839;DHT22;13669;50.186;27.062;2022-09-09T04:31:06;12.30;99.90
25839;DHT22;13669;50.186;27.062;2022-09-09T04:33:33;12.30;99.90
25839;DHT22;13669;50.186;27.062;2022-09-09T04:36:07;12.30;99.90
25839;DHT22;13669;50.186;27.062;2022-09-09T04:38:35;12.30;99.90
25839;DHT22;13669;50.186;27.062;2022-09-09T04:41:03;12.20;1.00
25839;DHT22;13669;50.186;27.062;2022-09-09T04:43:31;12.10;99.90
25839;DHT22;13669;50.186;27.062;2022-09-09T04:45:58;12.10;1.00
25839;DHT22;13669;50.186;27.062;2022-09-09T04:48:28;12.10;99.90
25839;DHT22;13669;50.186;27.062;2022-09-09T04:51:01;12.10;99.90
25839;DHT22;13669;50.186;27.062;2022-09-09T04:53:29;12.10;40.10
25839;DHT22;13669;50.186;27.062;2022-09-09T04:56:08;12.00;99.90
25839;DHT22;13669;50.186;27.062;2022-09-09T04:58:40;11.90;1.00
25839;DHT22;13669;50.186;27.062;2022-09-09T05:01:20;11.90;43.00
25839;DHT22;13669;50.186;27.062;2022-09-09T05:03:52;11.80;99.90
25839;DHT22;13669;50.186;27.062;2022-09-09T05:06:21;11.80;1.00
25839;DHT22;13669;50.186;27.062;2022-09-09T05:08:49;11.70;1.00
25839;DHT22;13669;50.186;27.062;2022-09-09T05:11:23;11.50;99.90
25839;DHT22;13669;50.186;27.062;2022-09-09T05:13:52;11.30;1.00
25839;DHT22;13669;50.186;27.062;2022-09-09T05:16:20;11.10;1.00
25839;DHT22;13669;50.186;27.062;2022-09-09T05:18:48;10.90;4.30
25839;DHT22;13669;50.186;27.062;2022-09-09T05:21:18;10.90;41.40
25839;DHT22;13669;50.186;27.062;2022-09-09T05:23:47;10.90;57.50
25839;DHT22;13669;50.186;27.062;2022-09-09T05:26:16;10.90;57.40
25839;DHT22;13669;50.186;27.062;2022-09-09T05:28:45;10.90;45.70
25839;DHT22;13669;50.186;27.062;2022-09-09T05:31:14;11.00;73.40
25839;DHT22;13669;50.186;27.062;2022-09-09T05:33:43;11.10;67.10
25839;DHT22;13669;50.186;27.062;2022-09-09T05:36:12;11.20;53.00
25839;DHT22;13669;50.186;27.062;2022-09-09T05:38:41;11.10;35.00
25839;DHT22;13669;50.186;27.062;2022-09-09T05:41:09;11.20;50.80
25839;DHT22;13669;50.186;27.062;2022-09-09T05:43:38;11.30;60.10
25839;DHT22;13669;50.186;27.062;2022-09-09T05:46:11;11.20;42.60
25839;DHT22;13669;50.186;27.062;2022-09-09T05:48:43;11.20;46.50
25839;DHT22;13669;50.186;27.062;2022-09-09T05:51:12;11.10;92.30
25839;DHT22;13669;50.186;27.062;2022-09-09T05:53:43;11.00;99.90
25839;DHT22;13669;50.186;27.062;2022-09-09T05:56:14;10.80;99.90
25839;DHT22;13669;50.186;27.062;2022-09-09T05:58:41;10.80;99.90
25839;DHT22;13669;50.186;27.062;2022-09-09T06:01:16;10.80;99.90
25839;DHT22;13669;50.186;27.062;2022-09-09T06:03:45;10.80;99.90
25839;DHT22;13669;50.186;27.062;2022-09-09T06:06:18;10.80;99.90
25839;DHT22;13669;50.186;27.062;2022-09-09T06:08:50;10.80;99.90
25839;DHT22;13669;50.186;27.062;2022-09-09T06:11:22;10.80;99.90
25839;DHT22;13669;50.186;27.062;2022-09-09T06:14:04;10.70;99.90
25839;DHT22;13669;50.186;27.062;2022-09-09T06:16:34;10.70;99.90
25839;DHT22;13669;50.186;27.062;2022-09-09T06:19:02;10.70;99.90
25839;DHT22;13669;50.186;27.062;2022-09-09T06:21:34;10.70;99.90
25839;DHT22;13669;50.186;27.062;2022-09-09T06:24:04;10.70;99.90
25839;DHT22;13669;50.186;27.062;2022-09-09T06:26:34;10.70;99.90
25839;DHT22;13669;50.186;27.062;2022-09-09T06:29:03;10.70;99.90
25839;DHT22;13669;50.186;27.062;2022-09-09T06:31:33;10.70;99.90
25839;DHT22;13669;50.186;27.062;2022-09-09T06:34:03;10.70;99.90
25839;DHT22;13669;50.186;27.062;2022-09-09T06:36:36;10.60;99.90
25839;DHT22;13669;50.186;27.062;2022-09-09T06:39:05;10.60;99.90
25839;DHT22;13669;50.186;27.062;2022-09-09T06:41:40;10.70;99.90
25839;DHT22;13669;50.186;27.062;2022-09-09T06:44:10;10.70;99.90
25839;DHT22;13669;50.186;27.062;2022-09-09T06:46:39;10.70;99.90
25839;DHT22;13669;50.186;27.062;2022-09-09T06:49:08;10.70;99.90
25839;DHT22;13669;50.186;27.062;2022-09-09T06:51:37;10.70;99.90
25839;DHT22;13669;50.186;27.062;2022-09-09T06:54:11;10.70;99.90
25839;DHT22;13669;50.186;27.062;2022-09-09T06:56:40;10.60;99.90
25839;DHT22;13669;50.186;27.062;2022-09-09T06:59:09;10.60;99.90
25839;DHT22;13669;50.186;27.062;2022-09-09T07:01:42;10.60;99.90
25839;DHT22;13669;50.186;27.062;2022-09-09T07:04:22;10.50;99.90
25839;DHT22;13669;50.186;27.062;2022-09-09T07:06:49;10.60;99.90
25839;DHT22;13669;50.186;27.062;2022-09-09T07:09:20;10.60;99.90
25839;DHT22;13669;50.186;27.062;2022-09-09T07:11:49;10.60;99.90
25839;DHT22;13669;50.186;27.062;2022-09-09T07:14:19;10.60;99.90
25839;DHT22;13669;50.186;27.062;2022-09-09T07:16:46;10.60;99.90
25839;DHT22;13669;50.186;27.062;2022-09-09T07:19:14;10.50;99.90
25839;DHT22;13669;50.186;27.062;2022-09-09T07:21:42;10.50;99.90
25839;DHT22;13669;50.186;27.062;2022-09-09T07:24:10;10.50;99.90
25839;DHT22;13669;50.186;27.062;2022-09-09T07:26:40;10.50;99.90
25839;DHT22;13669;50.186;27.062;2022-09-09T07:29:08;10.50;99.90
25839;DHT22;13669;50.186;27.062;2022-09-09T07:31:38;10.60;99.90
25839;DHT22;13669;50.186;27.062;2022-09-09T07:34:07;10.60;99.90
25839;DHT22;13669;50.186;27.062;2022-09-09T07:36:37;10.60;99.90
25839;DHT22;13669;50.186;27.062;2022-09-09T07:39:08;10.50;99.90
25839;DHT22;13669;50.186;27.062;2022-09-09T07:41:42;10.50;99.90
25839;DHT22;13669;50.186;27.062;2022-09-09T07:44:12;10.60;99.90
25839;DHT22;13669;50.186;27.062;2022-09-09T07:46:40;10.60;99.90
25839;DHT22;13669;50.186;27.062;2022-09-09T07:49:09;10.60;99.90
25839;DHT22;13669;50.186;27.062;2022-09-09T07:51:42;10.60;99.90
25839;DHT22;13669;50.186;27.062;2022-09-09T07:54:12;10.70;99.90
25839;DHT22;13669;50.186;27.062;2022-09-09T07:56:41;10.70;99.90
25839;DHT22;13669;50.186;27.062;2022-09-09T07:59:09;10.70;99.90
25839;DHT22;13669;50.186;27.062;2022-09-09T08:01:43;10.70;99.90
25839;DHT22;13669;50.186;27.062;2022-09-09T08:04:13;10.70;99.90
25839;DHT22;13669;50.186;27.062;2022-09-09T08:06:49;10.70;99.90
25839;DHT22;13669;50.186;27.062;2022-09-09T08:09:17;10.80;99.90
25839;DHT22;13669;50.186;27.062;2022-09-09T08:11:45;10.80;99.90
25839;DHT22;13669;50.186;27.062;2022-09-09T08:14:13;10.80;99.90
25839;DHT22;13669;50.186;27.062;2022-09-09T08:16:43;10.90;99.90
25839;DHT22;13669;50.186;27.062;2022-09-09T08:19:11;10.90;99.90
25839;DHT22;13669;50.186;27.062;2022-09-09T08:21:39;10.80;99.90
25839;DHT22;13669;50.186;27.062;2022-09-09T08:24:08;10.90;99.90
25839;DHT22;13669;50.186;27.062;2022-09-09T08:26:40;10.80;99.90
25839;DHT22;13669;50.186;27.062;2022-09-09T08:29:09;10.80;99.90
25839;DHT22;13669;50.186;27.062;2022-09-09T08:31:42;10.80;99.90
25839;DHT22;13669;50.186;27.062;2022-09-09T08:34:10;10.80;99.90
25839;DHT22;13669;50.186;27.062;2022-09-09T08:36:42;10.80;99.90
25839;DHT22;13669;50.186;27.062;2022-09-09T08:39:12;10.80;99.90
25839;DHT22;13669;50.186;27.062;2022-09-09T08:50:31;10.90;99.90
25839;DHT22;13669;50.186;27.062;2022-09-09T08:53:05;10.90;99.90
25839;DHT22;13669;50.186;27.062;2022-09-09T08:55:50;10.90;99.90
25839;DHT22;13669;50.186;27.062;2022-09-09T08:58:25;10.80;99.90
25839;DHT22;13669;50.186;27.062;2022-09-09T09:01:17;10.90;99.90
25839;DHT22;13669;50.186;27.062;2022-09-09T09:04:15;10.90;99.90
25839;DHT22;13669;50.186;27.062;2022-09-09T09:07:12;10.90;99.90
25839;DHT22;13669;50.186;27.062;2022-09-09T09:12:25;10.90;99.90
25839;DHT22;13669;50.186;27.062;2022-09-09T09:14:53;10.80;99.90
25839;DHT22;13669;50.186;27.062;2022-09-09T09:17:26;10.80;99.90
25839;DHT22;13669;50.186;27.062;2022-09-09T09:19:54;10.80;99.90
25839;DHT22;13669;50.186;27.062;2022-09-09T09:25:27;10.90;99.90
25839;DHT22;13669;50.186;27.062;2022-09-09T09:28:17;10.90;99.90
25839;DHT22;13669;50.186;27.062;2022-09-09T09:33:43;10.90;99.90
25839;DHT22;13669;50.186;27.062;2022-09-09T09:36:14;10.90;99.90
25839;DHT22;13669;50.186;27.062;2022-09-09T09:38:56;10.90;99.90
25839;DHT22;13669;50.186;27.062;2022-09-09T09:41:44;11.00;99.90
25839;DHT22;13669;50.186;27.062;2022-09-09T09:46:51;10.90;99.90
25839;DHT22;13669;50.186;27.062;2022-09-09T09:49:19;11.00;99.90
25839;DHT22;13669;50.186;27.062;2022-09-09T09:51:46;11.00;99.90
25839;DHT22;13669;50.186;27.062;2022-09-09T09:56:46;11.10;99.90
25839;DHT22;13669;50.186;27.062;2022-09-09T10:02:20;11.20;99.90
25839;DHT22;13669;50.186;27.062;2022-09-09T10:04:48;11.20;99.90
25839;DHT22;13669;50.186;27.062;2022-09-09T10:07:20;11.20;99.90
25839;DHT22;13669;50.186;27.062;2022-09-09T10:09:57;11.30;99.90
25839;DHT22;13669;50.186;27.062;2022-09-09T10:12:43;11.30;99.90
25839;DHT22;13669;50.186;27.062;2022-09-09T10:29:15;11.50;99.90
25839;DHT22;13669;50.186;27.062;2022-09-09T10:37:54;11.70;99.90
25839;DHT22;13669;50.186;27.062;2022-09-09T10:54:55;11.90;99.90
25839;DHT22;13669;50.186;27.062;2022-09-09T10:57:56;12.00;99.90
25839;DHT22;13669;50.186;27.062;2022-09-09T11:00:28;11.90;99.90
25839;DHT22;13669;50.186;27.062;2022-09-09T11:03:02;12.00;99.90
25839;DHT22;13669;50.186;27.062;2022-09-09T11:05:45;11.90;99.90
25839;DHT22;13669;50.186;27.062;2022-09-09T11:08:27;11.90;99.90
25839;DHT22;13669;50.186;27.062;2022-09-09T11:13:53;11.80;99.90
25839;DHT22;13669;50.186;27.062;2022-09-09T11:19:04;11.70;99.90
25839;DHT22;13669;50.186;27.062;2022-09-09T11:21:48;11.70;99.90
25839;DHT22;13669;50.186;27.062;2022-09-09T11:24:59;11.70;99.90
25839;DHT22;13669;50.186;27.062;2022-09-09T11:27:31;11.70;99.90
25839;DHT22;13669;50.186;27.062;2022-09-09T11:30:21;11.80;99.90
25839;DHT22;13669;50.186;27.062;2022-09-09T11:39:22;11.90;99.90
25839;DHT22;13669;50.186;27.062;2022-09-09T11:41:53;11.90;99.90
25839;DHT22;13669;50.186;27.062;2022-09-09T11:44:29;11.90;99.90
25839;DHT22;13669;50.186;27.062;2022-09-09T11:46:58;11.90;99.90
25839;DHT22;13669;50.186;27.062;2022-09-09T11:49:28;11.90;99.90
25839;DHT22;13669;50.186;27.062;2022-09-09T11:51:56;11.90;99.90
25839;DHT22;13669;50.186;27.062;2022-09-09T11:54:32;11.90;99.90
25839;DHT22;13669;50.186;27.062;2022-09-09T11:57:02;11.90;99.90
25839;DHT22;13669;50.186;27.062;2022-09-09T11:59:33;11.80;99.90
25839;DHT22;13669;50.186;27.062;2022-09-09T12:02:10;11.80;99.90
25839;DHT22;13669;50.186;27.062;2022-09-09T12:05:02;11.80;99.90
25839;DHT22;13669;50.186;27.062;2022-09-09T12:07:42;11.80;99.90
25839;DHT22;13669;50.186;27.062;2022-09-09T12:10:29;11.80;99.90
25839;DHT22;13669;50.186;27.062;2022-09-09T12:13:20;11.80;99.90
25839;DHT22;13669;50.186;27.062;2022-09-09T12:15:54;11.80;99.90
25839;DHT22;13669;50.186;27.062;2022-09-09T12:18:26;11.90;99.90
25839;DHT22;13669;50.186;27.062;2022-09-09T12:21:14;11.90;99.90
25839;DHT22;13669;50.186;27.062;2022-09-09T12:23:58;11.80;99.90
25839;DHT22;13669;50.186;27.062;2022-09-09T12:29:20;11.90;99.90
25839;DHT22;13669;50.186;27.062;2022-09-09T12:32:07;11.90;99.90
25839;DHT22;13669;50.186;27.062;2022-09-09T12:37:53;11.90;99.90
25839;DHT22;13669;50.186;27.062;2022-09-09T12:40:29;11.90;99.90
25839;DHT22;13669;50.186;27.062;2022-09-09T12:42:57;12.00;99.90
25839;DHT22;13669;50.186;27.062;2022-09-09T12:45:28;11.90;99.90
25839;DHT22;13669;50.186;27.062;2022-09-09T12:48:01;11.90;99.90
25839;DHT22;13669;50.186;27.062;2022-09-09T12:50:33;11.90;99.90
25839;DHT22;13669;50.186;27.062;2022-09-09T12:53:06;12.00;99.90
25839;DHT22;13669;50.186;27.062;2022-09-09T12:55:38;11.90;99.90
25839;DHT22;13669;50.186;27.062;2022-09-09T12:58:06;11.90;99.90
25839;DHT22;13669;50.186;27.062;2022-09-09T13:00:34;11.90;99.90
25839;DHT22;13669;50.186;27.062;2022-09-09T13:03:14;11.90;99.90
25839;DHT22;13669;50.186;27.062;2022-09-09T13:05:43;11.90;99.90
25839;DHT22;13669;50.186;27.062;2022-09-09T13:08:12;12.00;99.90
25839;DHT22;13669;50.186;27.062;2022-09-09T13:10:57;12.00;99.90
25839;DHT22;13669;50.186;27.062;2022-09-09T13:13:38;12.00;99.90
25839;DHT22;13669;50.186;27.062;2022-09-09T13:16:20;12.00;99.90
25839;DHT22;13669;50.186;27.062;2022-09-09T13:18:49;12.00;99.90
25839;DHT22;13669;50.186;27.062;2022-09-09T13:21:16;11.90;99.90
25839;DHT22;13669;50.186;27.062;2022-09-09T13:23:49;11.80;99.90
25839;DHT22;13669;50.186;27.062;2022-09-09T13:26:25;11.80;99.90
25839;DHT22;13669;50.186;27.062;2022-09-09T13:28:54;11.70;99.90
25839;DHT22;13669;50.186;27.062;2022-09-09T13:31:35;11.60;99.90
25839;DHT22;13669;50.186;27.062;2022-09-09T13:37:26;11.50;99.90
25839;DHT22;13669;50.186;27.062;2022-09-09T13:39:58;11.50;99.90
25839;DHT22;13669;50.186;27.062;2022-09-09T13:42:31;11.50;99.90
25839;DHT22;13669;50.186;27.062;2022-09-09T13:44:59;11.50;99.90
25839;DHT22;13669;50.186;27.062;2022-09-09T13:47:36;11.50;99.90
25839;DHT22;13669;50.186;27.062;2022-09-09T13:52:52;11.40;99.90
25839;DHT22;13669;50.186;27.062;2022-09-09T13:55:22;11.40;99.90
25839;DHT22;13669;50.186;27.062;2022-09-09T14:00:24;11.30;99.90
25839;DHT22;13669;50.186;27.062;2022-09-09T14:02:52;11.30;99.90
25839;DHT22;13669;50.186;27.062;2022-09-09T14:05:22;11.30;99.90
25839;DHT22;13669;50.186;27.062;2022-09-09T14:07:49;11.30;99.90
25839;DHT22;13669;50.186;27.062;2022-09-09T14:10:19;11.20;99.90
25839;DHT22;13669;50.186;27.062;2022-09-09T14:12:47;11.20;99.90
25839;DHT22;13669;50.186;27.062;2022-09-09T14:15:15;11.30;99.90
25839;DHT22;13669;50.186;27.062;2022-09-09T14:17:43;11.30;99.90
25839;DHT22;13669;50.186;27.062;2022-09-09T14:20:11;11.30;99.90
25839;DHT22;13669;50.186;27.062;2022-09-09T14:22:39;11.30;99.90
25839;DHT22;13669;50.186;27.062;2022-09-09T14:25:07;11.30;99.90
25839;DHT22;13669;50.186;27.062;2022-09-09T14:27:35;11.30;99.90
25839;DHT22;13669;50.186;27.062;2022-09-09T14:30:03;11.30;99.90
25839;DHT22;13669;50.186;27.062;2022-09-09T14:32:31;11.30;99.90
25839;DHT22;13669;50.186;27.062;2022-09-09T14:34:58;11.30;99.90
25839;DHT22;13669;50.186;27.062;2022-09-09T14:37:27;11.30;99.90
25839;DHT22;13669;50.186;27.062;2022-09-09T14:39:54;11.30;99.90
25839;DHT22;13669;50.186;27.062;2022-09-09T14:42:22;11.30;99.90
25839;DHT22;13669;50.186;27.062;2022-09-09T14:44:50;11.30;99.90
25839;DHT22;13669;50.186;27.062;2022-09-09T14:47:18;11.30;99.90
25839;DHT22;13669;50.186;27.062;2022-09-09T14:49:45;11.30;99.90
25839;DHT22;13669;50.186;27.062;2022-09-09T14:52:13;11.20;99.90
25839;DHT22;13669;50.186;27.062;2022-09-09T14:54:40;11.20;99.90
25839;DHT22;13669;50.186;27.062;2022-09-09T14:57:08;11.20;99.90
25839;DHT22;13669;50.186;27.062;2022-09-09T14:59:35;11.20;99.90
25839;DHT22;13669;50.186;27.062;2022-09-09T15:02:03;11.10;99.90
25839;DHT22;13669;50.186;27.062;2022-09-09T15:04:31;11.10;99.90
25839;DHT22;13669;50.186;27.062;2022-09-09T15:06:59;11.10;99.90
25839;DHT22;13669;50.186;27.062;2022-09-09T15:09:26;11.20;99.90
25839;DHT22;13669;50.186;27.062;2022-09-09T15:11:54;11.10;99.90
25839;DHT22;13669;50.186;27.062;2022-09-09T15:14:22;11.10;99.90
25839;DHT22;13669;50.186;27.062;2022-09-09T15:16:52;11.20;99.90
25839;DHT22;13669;50.186;27.062;2022-09-09T15:19:19;11.20;99.90
25839;DHT22;13669;50.186;27.062;2022-09-09T15:21:47;11.20;99.90
25839;DHT22;13669;50.186;27.062;2022-09-09T15:24:14;11.20;99.90
25839;DHT22;13669;50.186;27.062;2022-09-09T15:26:44;11.20;99.90
25839;DHT22;13669;50.186;27.062;2022-09-09T15:29:11;11.20;99.90
25839;DHT22;13669;50.186;27.062;2022-09-09T15:31:39;11.20;99.90
25839;DHT22;13669;50.186;27.062;2022-09-09T15:34:07;11.20;99.90
25839;DHT22;13669;50.186;27.062;2022-09-09T15:36:37;11.20;99.90
25839;DHT22;13669;50.186;27.062;2022-09-09T15:39:08;11.20;99.90
25839;DHT22;13669;50.186;27.062;2022-09-09T15:41:39;11.20;99.90
25839;DHT22;13669;50.186;27.062;2022-09-09T15:44:08;11.20;99.90
25839;DHT22;13669;50.186;27.062;2022-09-09T15:46:41;11.20;99.90
25839;DHT22;13669;50.186;27.062;2022-09-09T15:49:15;11.20;99.90
25839;DHT22;13669;50.186;27.062;2022-09-09T15:51:47;11.20;99.90
25839;DHT22;13669;50.186;27.062;2022-09-09T15:54:19;11.20;99.90
25839;DHT22;13669;50.186;27.062;2022-09-09T15:56:57;11.10;99.90
25839;DHT22;13669;50.186;27.062;2022-09-09T15:59:27;11.20;99.90
25839;DHT22;13669;50.186;27.062;2022-09-09T16:01:58;11.20;99.90
25839;DHT22;13669;50.186;27.062;2022-09-09T16:04:28;11.10;99.90
25839;DHT22;13669;50.186;27.062;2022-09-09T16:07:02;11.20;99.90
25839;DHT22;13669;50.186;27.062;2022-09-09T16:09:33;11.20;99.90
25839;DHT22;13669;50.186;27.062;2022-09-09T16:12:01;11.20;99.90
25839;DHT22;13669;50.186;27.062;2022-09-09T16:14:29;11.30;99.90
25839;DHT22;13669;50.186;27.062;2022-09-09T16:17:02;11.30;99.90
25839;DHT22;13669;50.186;27.062;2022-09-09T16:19:30;11.30;99.90
25839;DHT22;13669;50.186;27.062;2022-09-09T16:21:58;11.20;99.90
25839;DHT22;13669;50.186;27.062;2022-09-09T16:24:25;11.20;99.90
25839;DHT22;13669;50.186;27.062;2022-09-09T16:26:54;11.20;99.90
25839;DHT22;13669;50.186;27.062;2022-09-09T16:29:23;11.20;99.90
25839;DHT22;13669;50.186;27.062;2022-09-09T16:31:51;11.20;99.90
25839;DHT22;13669;50.186;27.062;2022-09-09T16:34:19;11.30;99.90
25839;DHT22;13669;50.186;27.062;2022-09-09T16:36:47;11.30;99.90
25839;DHT22;13669;50.186;27.062;2022-09-09T16:39:17;11.30;99.90
25839;DHT22;13669;50.186;27.062;2022-09-09T16:41:46;11.30;99.90
25839;DHT22;13669;50.186;27.062;2022-09-09T16:44:15;11.30;99.90
25839;DHT22;13669;50.186;27.062;2022-09-09T16:46:44;11.30;99.90
25839;DHT22;13669;50.186;27.062;2022-09-09T16:49:13;11.30;99.90
25839;DHT22;13669;50.186;27.062;2022-09-09T16:51:47;11.40;99.90
25839;DHT22;13669;50.186;27.062;2022-09-09T16:54:16;11.40;99.90
25839;DHT22;13669;50.186;27.062;2022-09-09T16:56:47;11.40;99.90
25839;DHT22;13669;50.186;27.062;2022-09-09T16:59:16;11.40;99.90
25839;DHT22;13669;50.186;27.062;2022-09-09T17:01:46;11.40;99.90
25839;DHT22;13669;50.186;27.062;2022-09-09T17:04:17;11.40;99.90
25839;DHT22;13669;50.186;27.062;2022-09-09T17:06:49;11.40;99.90
25839;DHT22;13669;50.186;27.062;2022-09-09T17:09:18;11.30;99.90
25839;DHT22;13669;50.186;27.062;2022-09-09T17:11:46;11.40;99.90
25839;DHT22;13669;50.186;27.062;2022-09-09T17:14:17;11.40;99.90
25839;DHT22;13669;50.186;27.062;2022-09-09T17:16:45;11.40;99.90
25839;DHT22;13669;50.186;27.062;2022-09-09T17:19:12;11.40;99.90
25839;DHT22;13669;50.186;27.062;2022-09-09T17:21:40;11.40;99.90
25839;DHT22;13669;50.186;27.062;2022-09-09T17:24:28;11.40;99.90
25839;DHT22;13669;50.186;27.062;2022-09-09T17:26:56;11.40;99.90
25839;DHT22;13669;50.186;27.062;2022-09-09T17:29:25;11.40;99.90
25839;DHT22;13669;50.186;27.062;2022-09-09T17:31:53;11.50;99.90
25839;DHT22;13669;50.186;27.062;2022-09-09T17:34:21;11.50;99.90
25839;DHT22;13669;50.186;27.062;2022-09-09T17:36:48;11.40;99.90
25839;DHT22;13669;50.186;27.062;2022-09-09T17:39:16;11.40;99.90
25839;DHT22;13669;50.186;27.062;2022-09-09T17:41:43;11.40;99.90
25839;DHT22;13669;50.186;27.062;2022-09-09T17:44:11;11.50;99.90
25839;DHT22;13669;50.186;27.062;2022-09-09T17:46:41;11.50;99.90
25839;DHT22;13669;50.186;27.062;2022-09-09T17:49:13;11.50;99.90
25839;DHT22;13669;50.186;27.062;2022-09-09T17:51:42;11.50;99.90
25839;DHT22;13669;50.186;27.062;2022-09-09T17:54:18;11.60;99.90